• Join FlightAware (Why Join?)
  • Login
  • US Flag 
05:20AM EDT


 

Airport Tracker/Info


-or-


 

Live Flight TrackerFlight Track Log ✈ GJS3707 ✈ 10-Jun-2013 ✈ KBOI - KORD

Flight Track Log - Related Links

Times and Time Zones

All times are in EDT time to prevent confusion due to time zone crossing. See the GJS3707 flight status page for this flight to view local times or setup timezone preferences in your user account.

Time Position Orientation Groundspeed Altitude Reporting Facility
EDT Latitude Longitude Course Direction KTS MPH feet Rate Location/Type
04:00PM 43.6003 -116.2886 81° East 195 224 4,900  Level Salt Lake Center
04:01PM 43.6547 -116.3267 333° Northwest 220 253 7,000 1,800 Climbing Salt Lake Center
04:02PM 43.7081 -116.2914 26° Northeast 242 278 8,600 1,680 Climbing Salt Lake Center
04:03PM 43.6602 -115.5421 78° East  Level FlightAware Approximate
04:03PM 43.7239 -116.1775 79° East 271 312 10,500  Level Salt Lake Center
04:04PM 43.6786 -115.3689 83° East  Level FlightAware Approximate
04:04PM 43.7364 -116.0708 81° East 291 335 12,100  Level Salt Lake Center
04:05PM 43.7038 -115.1996 81° East  Level FlightAware Approximate
04:05PM 43.7497 -115.9547 81° East 316 364 13,600  Level Salt Lake Center
04:06PM 43.7658 -115.8028 82° East 356 410 14,800 1,080 Climbing Salt Lake Center
04:07PM 43.7808 -115.6603 82° East 388 447 15,900 1,260 Climbing Salt Lake Center
04:08PM 43.7989 -115.4853 82° East 410 472 17,500 1,680 Climbing Salt Lake Center
04:09PM 43.8150 -115.3336 82° East 417 480 19,400 1,860 Climbing Salt Lake Center
04:10PM 43.8331 -115.1550 82° East 421 484 21,400 1,680 Climbing Salt Lake Center
04:12PM 43.8486 -115.0036 82° East 417 480 22,900 1,260 Climbing Salt Lake Center
04:13PM 43.8667 -114.8197 82° East 435 501 24,100 1,020 Climbing Salt Lake Center
04:14PM 43.9094 -114.6625 69° East 464 534 25,000 1,020 Climbing Salt Lake Center
04:15PM 43.9736 -114.4803 64° Northeast 474 545 26,200 960 Climbing Salt Lake Center
04:16PM 43.9911 -114.3092 82° East 474 545 27,100 960 Climbing Salt Lake Center
04:17PM 44.0025 -114.1033 86° East 478 550 28,200 960 Climbing Salt Lake Center
04:18PM 44.0106 -113.9269 86° East 478 550 29,200 1,020 Climbing Salt Lake Center
04:19PM 44.0219 -113.7317 85° East 483 556 30,300 960 Climbing Salt Lake Center
04:20PM 44.0311 -113.5519 86° East 486 559 31,200 840 Climbing Salt Lake Center
04:21PM 44.0419 -113.3417 86° East 489 563 32,100 780 Climbing Salt Lake Center
04:22PM 44.0492 -113.1594 87° East 493 567 32,900 660 Climbing Salt Lake Center
04:23PM 44.0592 -112.9478 86° East 492 566 33,500 540 Climbing Salt Lake Center
04:24PM 44.0658 -112.7642 87° East 497 572 34,100 480 Climbing Salt Lake Center
04:25PM 44.0739 -112.5781 86° East 503 579 34,500 480 Climbing Salt Lake Center
04:26PM 44.0819 -112.3594 87° East 508 585 35,100 480 Climbing Salt Lake Center
04:27PM 44.0886 -112.1717 87° East 510 587 35,600 480 Climbing Salt Lake Center
04:28PM 44.0917 -111.9561 89° East 503 579 36,100 480 Climbing Salt Lake Center
04:29PM 44.0922 -111.7683 90° East 508 585 36,600 420 Climbing Salt Lake Center
04:30PM 44.0933 -111.5497 90° East 510 587 37,000 180 Climbing Salt Lake Center
04:31PM 44.0931 -111.3611 90° East 513 590 37,000  Level Salt Lake Center
04:32PM 44.0936 -111.1397 90° East 517 595 37,000  Level Salt Lake Center
04:33PM 44.0931 -110.9486 90° East 520 598 37,000  Level Salt Lake Center
04:34PM 44.0925 -110.7239 90° East 522 601 37,000  Level Salt Lake Center
04:35PM 44.0936 -110.5325 89° East 520 598 37,000  Level Salt Lake Center
04:36PM 44.0914 -110.3094 91° East 518 596 37,000  Level Salt Lake Center
04:37PM 44.0911 -110.1183 90° East 518 596 37,000  Level Salt Lake Center
04:38PM 44.0883 -109.8953 91° East 518 596 37,000  Level Salt Lake Center
04:39PM 44.0861 -109.7033 91° East 518 596 37,000  Level Salt Lake Center
04:40PM 44.0831 -109.5117 91° East 519 597 37,000  Level Salt Lake Center
04:41PM 44.0803 -109.2994 91° East 514 592 37,000  Level Salt Lake Center
04:42PM 44.0747 -109.0750 92° East 519 597 37,000  Level Salt Lake Center
04:43PM 44.0722 -108.8831 91° East 520 598 37,000  Level Salt Lake Center
04:44PM 44.0681 -108.6603 91° East 519 597 37,000  Level Salt Lake Center
04:45PM 44.0628 -108.4689 92° East 519 597 37,000  Level Salt Lake Center
04:47PM 44.0581 -108.2453 92° East 520 598 37,000  Level Salt Lake Center
04:48PM 44.0519 -108.0553 92° East 518 596 37,100 240 Climbing Salt Lake Center
04:49PM 44.0483 -107.8683 91° East 511 588 37,600 480 Climbing Salt Lake Center
04:50PM 44.0414 -107.6514 92° East 508 585 38,200 480 Climbing Salt Lake Center
04:51PM 44.0369 -107.4664 92° East 504 580 38,700 360 Climbing Salt Lake Center
04:52PM 44.0294 -107.2531 93° East 499 574 39,000 120 Climbing Salt Lake Center
04:53PM 44.0228 -107.0703 93° East 498 573 39,000  Level Salt Lake Center
04:53PM 44.0211 -107.0092 92° East 495 570 39,000  Level Denver Center
04:54PM 44.0153 -106.8544 93° East 503 579 39,000  Level Salt Lake Center
04:55PM 44.0086 -106.6683 93° East 505 581 39,000  Level Salt Lake Center
04:55PM 44.0061 -106.6003 93° East 503 579 39,000  Level Denver Center
04:56PM 44.0000 -106.4153 93° East 501 577 39,000  Level Denver Center
04:57PM 44.0003 -106.2681 90° East 503 579 39,000  Level Salt Lake Center
04:58PM 44.0047 -106.0744 88° East 504 580 39,000  Level Salt Lake Center
04:58PM 44.0042 -106.0133 91° East 501 577 39,000  Level Denver Center
04:59PM 44.0047 -105.8006 90° East 495 570 39,000  Level Denver Center
05:00PM 44.0053 -105.6161 90° East 496 571 39,000  Level Denver Center
05:01PM 44.0050 -105.4639 90° East 496 571 39,000  Level Denver Center
05:02PM 44.0044 -105.2194 90° East 496 571 39,000  Level Denver Center
05:03PM 44.0033 -105.0361 90° East 496 571 39,000  Level Denver Center
05:04PM 44.0028 -104.8222 90° East 495 570 39,000  Level Denver Center
05:05PM 44.0008 -104.6369 91° East 499 574 39,000  Level Denver Center
05:06PM 43.9983 -104.4225 91° East 498 573 39,000  Level Denver Center
05:07PM 43.9972 -104.2381 90° East 498 573 39,000  Level Denver Center
05:08PM 43.9942 -104.0236 91° East 498 573 39,000  Level Denver Center
05:10PM 43.9914 -103.8386 91° East 499 574 39,000  Level Denver Center
05:11PM 43.9881 -103.6217 91° East 501 577 39,000  Level Denver Center
05:12PM 43.9847 -103.4375 91° East 500 575 39,000  Level Denver Center
05:13PM 43.9822 -103.2533 91° East 499 574 39,000  Level Denver Center
05:14PM 43.9781 -103.0369 91° East 500 575 39,000  Level Denver Center
05:15PM 43.9728 -102.8508 92° East 502 578 39,000  Level Denver Center
05:16PM 43.9681 -102.6492 92° East 503 579 39,000  Level Denver Center
05:17PM 43.9606 -102.4556 93° East 504 580 39,000  Level Denver Center
05:18PM 43.9539 -102.2600 93° East 506 582 39,000  Level Denver Center
05:19PM 43.9436 -102.0244 93° East 510 587 39,000  Level Denver Center
05:20PM 43.9336 -101.7900 93° East 510 587 39,000 -300 Level Denver Center
05:21PM 43.9322 -101.5997 91° East 501 577 38,500 -420 Descending Denver Center
05:22PM 43.9250 -101.4403 94° East 510 587 38,200 -540 Descending Minneapolis Center
05:23PM 43.9161 -101.1983 93° East 518 596 37,500 -540 Descending Minneapolis Center
05:24PM 43.9072 -100.9958 93° East 526 605 37,100 -300 Descending Minneapolis Center
05:25PM 43.8986 -100.7925 93° East 530 610 37,000 -60 Descending Minneapolis Center
05:26PM 43.8903 -100.5919 93° East 527 606 37,000  Level Minneapolis Center
05:27PM 43.8792 -100.3889 94° East 528 608 37,000  Level Minneapolis Center
05:28PM 43.8694 -100.1878 94° East 528 608 37,000  Level Minneapolis Center
05:29PM 43.8581 -99.9497 94° East 523 602 37,000  Level Minneapolis Center
05:30PM 43.8467 -99.7492 94° East 523 602 37,000  Level Minneapolis Center
05:31PM 43.8358 -99.5478 94° East 526 605 37,000  Level Minneapolis Center
05:32PM 43.8253 -99.3478 94° East 524 603 37,000 -300 Level Minneapolis Center
05:33PM 43.8136 -99.1478 95° East 524 603 36,500 -540 Descending Minneapolis Center
05:34PM 43.8011 -98.9428 95° East 535 616 36,000 -540 Descending Minneapolis Center
05:35PM 43.7886 -98.7369 95° East 538 619 35,500 -540 Descending Minneapolis Center
05:36PM 43.7725 -98.4817 95° East 546 628 35,000 -300 Descending Minneapolis Center
05:37PM 43.7592 -98.2739 95° East 544 626 35,000  Level Minneapolis Center
05:38PM 43.7447 -98.0669 95° East 544 626 35,000  Level Minneapolis Center
05:39PM 43.7294 -97.8611 96° East 541 623 35,000  Level Minneapolis Center
05:41PM 43.7156 -97.6550 95° East 542 624 35,000  Level Minneapolis Center
05:42PM 43.7003 -97.4503 96° East 541 623 35,000  Level Minneapolis Center
05:43PM 43.6864 -97.2453 95° East 540 621 35,000  Level Minneapolis Center
05:44PM 43.6678 -97.0036 96° East 533 613 35,000  Level Minneapolis Center
05:45PM 43.6511 -96.8033 96° East 530 610 35,000  Level Minneapolis Center
05:46PM 43.6253 -96.6078 100° East 526 605 35,000  Level Minneapolis Center
05:47PM 43.5956 -96.4111 102° East 528 608 35,000  Level Minneapolis Center
05:48PM 43.5658 -96.2161 102° East 527 606 35,000  Level Minneapolis Center
05:49PM 43.5322 -95.9783 101° East 532 612 35,000  Level Minneapolis Center
05:50PM 43.5119 -95.7769 98° East 535 616 35,000  Level Minneapolis Center
05:51PM 43.4892 -95.5761 99° East 536 617 35,000  Level Minneapolis Center
05:52PM 43.4675 -95.3761 98° East 533 613 35,000  Level Minneapolis Center
05:53PM 43.4444 -95.1761 99° East 533 613 35,000  Level Minneapolis Center
05:54PM 43.4217 -94.9767 99° East 532 612 35,000  Level Minneapolis Center
05:55PM 43.3925 -94.7342 99° East 536 617 35,000  Level Minneapolis Center
05:56PM 43.3678 -94.5328 100° East 534 615 35,000  Level Minneapolis Center
05:57PM 43.3433 -94.3311 99° East 537 618 35,000  Level Minneapolis Center
05:58PM 43.3167 -94.1186 100° East 540 621 35,000  Level Minneapolis Center
05:59PM 43.2917 -93.9192 100° East 536 617 35,000  Level Minneapolis Center
06:00PM 43.2669 -93.7208 100° East 533 613 35,000  Level Minneapolis Center
06:01PM 43.2408 -93.5256 100° East 527 606 35,000  Level Minneapolis Center
06:02PM 43.2153 -93.3283 100° East 528 608 35,000  Level Minneapolis Center
06:03PM 43.1842 -93.0925 100° East 528 608 35,000  Level Minneapolis Center
06:04PM 43.1586 -92.8972 100° East 528 608 35,000  Level Minneapolis Center
06:05PM 43.1311 -92.7019 101° East 526 605 35,000 -60 Level Minneapolis Center
06:06PM 43.1044 -92.5078 101° East 525 604 34,900 -540 Descending Minneapolis Center
06:07PM 43.0700 -92.2739 101° East 528 608 33,800 -960 Descending Chicago Center
06:08PM 43.0486 -92.1144 100° East 532 612 33,000 -1,140 Descending Minneapolis Center
06:09PM 43.0156 -91.8739 101° East 536 617 31,800 -960 Descending Minneapolis Center
06:10PM 42.9878 -91.6722 101° East 537 618 31,100 -420 Descending Minneapolis Center
06:11PM 42.9606 -91.4689 100° East 537 618 31,000 -60 Descending Minneapolis Center
06:12PM 42.9433 -91.2697 97° East 529 609 31,000  Level Minneapolis Center
06:13PM 42.9264 -91.0706 97° East 529 609 31,000 -120 Level Minneapolis Center
06:15PM 42.9053 -90.8347 97° East 527 606 30,800 -540 Descending Chicago Center
06:16PM 42.8656 -90.6400 105° East 535 616 29,800 -1,080 Descending Chicago Center
06:17PM 42.8217 -90.4086 104° East 528 608 28,600 -1,080 Descending Chicago Center
06:18PM 42.7825 -90.2197 106° East 523 602 27,600 -1,020 Descending Chicago Center
06:19PM 42.7461 -90.0325 105° East 517 595 26,500 -1,680 Descending Chicago Center
06:20PM 42.7053 -89.8267 105° East 509 586 24,200 -2,280 Descending Chicago Center
06:21PM 42.6683 -89.6433 105° East 505 581 21,800 -2,400 Descending Chicago Center
06:22PM 42.6325 -89.4683 105° East 485 558 19,300 -2,400 Descending Chicago Center
06:23PM 42.5986 -89.3044 106° East 454 522 16,900 -2,100 Descending Chicago Center
06:24PM 42.5692 -89.1278 103° East 404 465 15,000 -1,500 Descending Chicago Center
06:25PM 42.6061 -89.0117 67° East 336 387 13,900 -1,020 Descending Chicago Center
06:26PM 42.6278 -88.9047 75° East 310 357 12,900 -780 Descending Chicago Center
06:27PM 42.5733 -88.8019 126° Southeast 339 390 12,300 -780 Descending Chicago Center
06:28PM 42.5136 -88.7092 131° Southeast 332 382 11,300 -1,020 Descending Chicago Center
06:29PM 42.4456 -88.6061 132° Southeast 317 365 10,200 -1,020 Descending Chicago Center
06:30PM 42.3886 -88.5197 132° Southeast 311 358 9,200 -600 Descending Chicago Center
06:31PM 42.3647 -88.4147 107° East 299 344 9,000 -240 Descending Chicago Center
06:32PM 42.3258 -88.3144 118° Southeast 304 350 8,800 -780 Descending Chicago Center
06:33PM 42.2633 -88.2439 140° Southeast 295 339 7,500 -1,080 Descending Chicago Center
06:34PM 42.2067 -88.1772 139° Southeast 280 322 6,600 -1,260 Descending Chicago Center
06:35PM 42.1483 -88.1122 140° Southeast 236 272 5,000 -1,500 Descending Chicago Center
06:36PM 42.1078 -88.0667 140° Southeast 204 235 3,600 -1,320 Descending Chicago Center
06:37PM 42.1000 -88.0500 122° Southeast 194 223 3,300 -1,140 Descending Chicago TRACON